sensor_id;sensor_type;location;lat;lon;timestamp;P1;durP1;ratioP1;P2;durP2;ratioP2
25657;SDS011;13517;59.320;18.042;2023-12-20T00:00:53;17.05;;;3.55;;
25657;SDS011;13517;59.320;18.042;2023-12-20T00:03:19;21.25;;;2.85;;
25657;SDS011;13517;59.320;18.042;2023-12-20T00:05:44;22.20;;;2.83;;
25657;SDS011;13517;59.320;18.042;2023-12-20T00:08:10;10.73;;;2.10;;
25657;SDS011;13517;59.320;18.042;2023-12-20T00:10:35;22.42;;;2.45;;
25657;SDS011;13517;59.320;18.042;2023-12-20T00:13:01;16.52;;;2.38;;
25657;SDS011;13517;59.320;18.042;2023-12-20T00:15:26;12.30;;;2.67;;
25657;SDS011;13517;59.320;18.042;2023-12-20T00:17:52;23.70;;;3.95;;
25657;SDS011;13517;59.320;18.042;2023-12-20T00:20:17;14.25;;;2.65;;
25657;SDS011;13517;59.320;18.042;2023-12-20T00:22:42;33.25;;;3.70;;
25657;SDS011;13517;59.320;18.042;2023-12-20T00:25:08;12.52;;;2.63;;
25657;SDS011;13517;59.320;18.042;2023-12-20T00:27:33;21.90;;;3.38;;
25657;SDS011;13517;59.320;18.042;2023-12-20T00:29:58;18.60;;;2.55;;
25657;SDS011;13517;59.320;18.042;2023-12-20T00:32:25;17.35;;;2.55;;
25657;SDS011;13517;59.320;18.042;2023-12-20T00:34:50;16.00;;;2.67;;
25657;SDS011;13517;59.320;18.042;2023-12-20T00:37:15;24.17;;;2.47;;
25657;SDS011;13517;59.320;18.042;2023-12-20T00:39:41;19.58;;;4.32;;
25657;SDS011;13517;59.320;18.042;2023-12-20T00:42:07;23.23;;;2.97;;
25657;SDS011;13517;59.320;18.042;2023-12-20T00:44:32;21.02;;;2.60;;
25657;SDS011;13517;59.320;18.042;2023-12-20T00:46:58;20.08;;;3.47;;
25657;SDS011;13517;59.320;18.042;2023-12-20T00:49:23;22.20;;;3.65;;
25657;SDS011;13517;59.320;18.042;2023-12-20T00:51:49;21.63;;;2.63;;
25657;SDS011;13517;59.320;18.042;2023-12-20T00:54:15;23.17;;;4.60;;
25657;SDS011;13517;59.320;18.042;2023-12-20T00:56:41;21.50;;;2.50;;
25657;SDS011;13517;59.320;18.042;2023-12-20T00:59:06;25.40;;;2.78;;
25657;SDS011;13517;59.320;18.042;2023-12-20T01:01:32;15.57;;;3.17;;
25657;SDS011;13517;59.320;18.042;2023-12-20T01:03:58;33.83;;;3.25;;
25657;SDS011;13517;59.320;18.042;2023-12-20T01:06:23;23.13;;;3.88;;
25657;SDS011;13517;59.320;18.042;2023-12-20T01:08:49;26.02;;;3.67;;
25657;SDS011;13517;59.320;18.042;2023-12-20T01:11:14;22.30;;;4.22;;
25657;SDS011;13517;59.320;18.042;2023-12-20T01:13:40;21.23;;;2.70;;
25657;SDS011;13517;59.320;18.042;2023-12-20T01:16:05;22.05;;;3.20;;
25657;SDS011;13517;59.320;18.042;2023-12-20T01:18:31;24.70;;;2.53;;
25657;SDS011;13517;59.320;18.042;2023-12-20T01:21:00;24.95;;;2.88;;
25657;SDS011;13517;59.320;18.042;2023-12-20T01:23:28;20.13;;;2.67;;
25657;SDS011;13517;59.320;18.042;2023-12-20T01:25:53;22.25;;;2.72;;
25657;SDS011;13517;59.320;18.042;2023-12-20T01:28:19;18.05;;;2.60;;
25657;SDS011;13517;59.320;18.042;2023-12-20T01:30:44;20.80;;;2.47;;
25657;SDS011;13517;59.320;18.042;2023-12-20T01:33:09;26.17;;;2.90;;
25657;SDS011;13517;59.320;18.042;2023-12-20T01:35:35;17.52;;;2.75;;
25657;SDS011;13517;59.320;18.042;2023-12-20T01:38:00;23.58;;;3.63;;
25657;SDS011;13517;59.320;18.042;2023-12-20T01:40:26;26.13;;;5.18;;
25657;SDS011;13517;59.320;18.042;2023-12-20T01:43:01;18.42;;;2.28;;
25657;SDS011;13517;59.320;18.042;2023-12-20T01:45:27;33.17;;;3.42;;
25657;SDS011;13517;59.320;18.042;2023-12-20T01:47:54;20.75;;;3.47;;
25657;SDS011;13517;59.320;18.042;2023-12-20T01:50:21;23.45;;;4.03;;
25657;SDS011;13517;59.320;18.042;2023-12-20T01:52:46;19.38;;;2.80;;
25657;SDS011;13517;59.320;18.042;2023-12-20T01:55:12;15.52;;;3.05;;
25657;SDS011;13517;59.320;18.042;2023-12-20T01:57:43;31.10;;;3.58;;
25657;SDS011;13517;59.320;18.042;2023-12-20T02:00:09;18.20;;;3.05;;
25657;SDS011;13517;59.320;18.042;2023-12-20T02:02:37;37.58;;;4.13;;
25657;SDS011;13517;59.320;18.042;2023-12-20T02:05:07;21.20;;;3.10;;
25657;SDS011;13517;59.320;18.042;2023-12-20T02:07:33;15.27;;;2.30;;
25657;SDS011;13517;59.320;18.042;2023-12-20T02:10:02;30.00;;;3.67;;
25657;SDS011;13517;59.320;18.042;2023-12-20T02:12:29;25.00;;;3.25;;
25657;SDS011;13517;59.320;18.042;2023-12-20T02:14:54;30.75;;;3.72;;
25657;SDS011;13517;59.320;18.042;2023-12-20T02:17:20;22.60;;;3.13;;
25657;SDS011;13517;59.320;18.042;2023-12-20T02:19:45;20.05;;;2.70;;
25657;SDS011;13517;59.320;18.042;2023-12-20T02:22:12;18.27;;;3.00;;
25657;SDS011;13517;59.320;18.042;2023-12-20T02:24:37;30.80;;;2.72;;
25657;SDS011;13517;59.320;18.042;2023-12-20T02:27:03;13.38;;;2.35;;
25657;SDS011;13517;59.320;18.042;2023-12-20T02:29:31;25.85;;;3.33;;
25657;SDS011;13517;59.320;18.042;2023-12-20T02:31:58;21.73;;;3.17;;
25657;SDS011;13517;59.320;18.042;2023-12-20T02:34:23;26.75;;;4.05;;
25657;SDS011;13517;59.320;18.042;2023-12-20T02:36:48;26.73;;;3.97;;
25657;SDS011;13517;59.320;18.042;2023-12-20T02:39:14;20.23;;;2.83;;
25657;SDS011;13517;59.320;18.042;2023-12-20T02:41:39;26.20;;;2.67;;
25657;SDS011;13517;59.320;18.042;2023-12-20T02:44:04;26.63;;;2.88;;
25657;SDS011;13517;59.320;18.042;2023-12-20T02:46:30;20.85;;;2.70;;
25657;SDS011;13517;59.320;18.042;2023-12-20T02:48:55;24.23;;;2.88;;
25657;SDS011;13517;59.320;18.042;2023-12-20T02:51:20;23.00;;;2.50;;
25657;SDS011;13517;59.320;18.042;2023-12-20T02:53:46;12.63;;;2.45;;
25657;SDS011;13517;59.320;18.042;2023-12-20T02:56:11;17.02;;;3.92;;
25657;SDS011;13517;59.320;18.042;2023-12-20T02:58:37;26.42;;;3.65;;
25657;SDS011;13517;59.320;18.042;2023-12-20T03:01:02;21.05;;;2.97;;
25657;SDS011;13517;59.320;18.042;2023-12-20T03:03:28;18.08;;;2.85;;
25657;SDS011;13517;59.320;18.042;2023-12-20T03:05:53;22.30;;;2.58;;
25657;SDS011;13517;59.320;18.042;2023-12-20T03:08:19;22.67;;;3.78;;
25657;SDS011;13517;59.320;18.042;2023-12-20T03:10:44;17.92;;;2.67;;
25657;SDS011;13517;59.320;18.042;2023-12-20T03:13:09;28.98;;;2.60;;
25657;SDS011;13517;59.320;18.042;2023-12-20T03:15:35;16.83;;;3.88;;
25657;SDS011;13517;59.320;18.042;2023-12-20T03:18:01;21.42;;;2.65;;
25657;SDS011;13517;59.320;18.042;2023-12-20T03:20:26;16.58;;;2.58;;
25657;SDS011;13517;59.320;18.042;2023-12-20T03:22:52;17.67;;;2.67;;
25657;SDS011;13517;59.320;18.042;2023-12-20T03:25:17;22.27;;;3.20;;
25657;SDS011;13517;59.320;18.042;2023-12-20T03:27:42;16.17;;;2.47;;
25657;SDS011;13517;59.320;18.042;2023-12-20T03:30:08;26.63;;;3.53;;
25657;SDS011;13517;59.320;18.042;2023-12-20T03:32:34;24.52;;;2.60;;
25657;SDS011;13517;59.320;18.042;2023-12-20T03:34:59;24.80;;;2.88;;
25657;SDS011;13517;59.320;18.042;2023-12-20T03:37:25;9.35;;;2.20;;
25657;SDS011;13517;59.320;18.042;2023-12-20T03:39:50;14.10;;;2.50;;
25657;SDS011;13517;59.320;18.042;2023-12-20T03:42:15;17.48;;;2.78;;
25657;SDS011;13517;59.320;18.042;2023-12-20T03:44:41;27.73;;;2.85;;
25657;SDS011;13517;59.320;18.042;2023-12-20T03:47:06;12.63;;;2.40;;
25657;SDS011;13517;59.320;18.042;2023-12-20T03:49:32;14.43;;;2.33;;
25657;SDS011;13517;59.320;18.042;2023-12-20T03:51:58;27.10;;;3.50;;
25657;SDS011;13517;59.320;18.042;2023-12-20T03:54:23;24.95;;;5.00;;
25657;SDS011;13517;59.320;18.042;2023-12-20T03:56:49;24.77;;;3.08;;
25657;SDS011;13517;59.320;18.042;2023-12-20T03:59:15;21.98;;;3.60;;
25657;SDS011;13517;59.320;18.042;2023-12-20T04:01:43;15.32;;;2.83;;
25657;SDS011;13517;59.320;18.042;2023-12-20T04:04:12;14.85;;;2.80;;
25657;SDS011;13517;59.320;18.042;2023-12-20T04:06:38;17.50;;;3.10;;
25657;SDS011;13517;59.320;18.042;2023-12-20T04:09:04;18.95;;;3.88;;
25657;SDS011;13517;59.320;18.042;2023-12-20T04:11:29;23.90;;;3.30;;
25657;SDS011;13517;59.320;18.042;2023-12-20T04:13:55;19.00;;;3.58;;
25657;SDS011;13517;59.320;18.042;2023-12-20T04:16:20;14.55;;;2.95;;
25657;SDS011;13517;59.320;18.042;2023-12-20T04:18:46;16.05;;;2.95;;
25657;SDS011;13517;59.320;18.042;2023-12-20T04:21:11;22.25;;;3.63;;
25657;SDS011;13517;59.320;18.042;2023-12-20T04:23:36;19.95;;;3.90;;
25657;SDS011;13517;59.320;18.042;2023-12-20T04:26:02;18.98;;;4.15;;
25657;SDS011;13517;59.320;18.042;2023-12-20T04:28:27;18.83;;;3.22;;
25657;SDS011;13517;59.320;18.042;2023-12-20T04:30:55;17.42;;;2.85;;
25657;SDS011;13517;59.320;18.042;2023-12-20T04:33:21;14.73;;;2.72;;
25657;SDS011;13517;59.320;18.042;2023-12-20T04:35:47;14.23;;;3.28;;
25657;SDS011;13517;59.320;18.042;2023-12-20T04:38:13;19.33;;;3.13;;
25657;SDS011;13517;59.320;18.042;2023-12-20T04:40:38;18.25;;;3.22;;
25657;SDS011;13517;59.320;18.042;2023-12-20T04:43:05;12.63;;;3.22;;
25657;SDS011;13517;59.320;18.042;2023-12-20T04:45:31;19.10;;;2.92;;
25657;SDS011;13517;59.320;18.042;2023-12-20T04:47:56;18.80;;;3.33;;
25657;SDS011;13517;59.320;18.042;2023-12-20T04:50:22;10.48;;;3.83;;
25657;SDS011;13517;59.320;18.042;2023-12-20T04:52:47;12.82;;;3.22;;
25657;SDS011;13517;59.320;18.042;2023-12-20T04:55:13;16.92;;;3.63;;
25657;SDS011;13517;59.320;18.042;2023-12-20T04:57:39;21.88;;;3.47;;
25657;SDS011;13517;59.320;18.042;2023-12-20T05:00:04;15.27;;;2.70;;
25657;SDS011;13517;59.320;18.042;2023-12-20T05:02:30;15.77;;;3.05;;
25657;SDS011;13517;59.320;18.042;2023-12-20T05:04:56;14.98;;;3.05;;
25657;SDS011;13517;59.320;18.042;2023-12-20T05:07:21;14.77;;;3.03;;
25657;SDS011;13517;59.320;18.042;2023-12-20T05:09:47;17.58;;;3.03;;
25657;SDS011;13517;59.320;18.042;2023-12-20T05:12:12;14.65;;;3.00;;
25657;SDS011;13517;59.320;18.042;2023-12-20T05:14:37;13.25;;;3.20;;
25657;SDS011;13517;59.320;18.042;2023-12-20T05:17:03;18.65;;;3.28;;
25657;SDS011;13517;59.320;18.042;2023-12-20T05:19:29;20.95;;;3.28;;
25657;SDS011;13517;59.320;18.042;2023-12-20T05:21:54;18.15;;;3.58;;
25657;SDS011;13517;59.320;18.042;2023-12-20T05:24:19;13.82;;;2.92;;
25657;SDS011;13517;59.320;18.042;2023-12-20T05:26:45;21.67;;;3.17;;
25657;SDS011;13517;59.320;18.042;2023-12-20T05:29:10;15.77;;;3.13;;
25657;SDS011;13517;59.320;18.042;2023-12-20T05:31:35;15.13;;;3.30;;
25657;SDS011;13517;59.320;18.042;2023-12-20T05:34:01;23.98;;;3.97;;
25657;SDS011;13517;59.320;18.042;2023-12-20T05:36:26;19.83;;;5.43;;
25657;SDS011;13517;59.320;18.042;2023-12-20T05:38:51;12.68;;;3.22;;
25657;SDS011;13517;59.320;18.042;2023-12-20T05:41:18;13.90;;;3.20;;
25657;SDS011;13517;59.320;18.042;2023-12-20T05:43:43;22.33;;;3.60;;
25657;SDS011;13517;59.320;18.042;2023-12-20T05:46:11;15.77;;;3.33;;
25657;SDS011;13517;59.320;18.042;2023-12-20T05:48:38;13.07;;;3.15;;
25657;SDS011;13517;59.320;18.042;2023-12-20T05:51:03;17.92;;;3.22;;
25657;SDS011;13517;59.320;18.042;2023-12-20T05:53:29;15.40;;;3.45;;
25657;SDS011;13517;59.320;18.042;2023-12-20T05:55:54;18.40;;;3.58;;
25657;SDS011;13517;59.320;18.042;2023-12-20T05:58:20;9.07;;;2.97;;
25657;SDS011;13517;59.320;18.042;2023-12-20T06:00:45;17.40;;;3.65;;
25657;SDS011;13517;59.320;18.042;2023-12-20T06:03:10;21.50;;;3.88;;
25657;SDS011;13517;59.320;18.042;2023-12-20T06:05:36;19.52;;;3.42;;
25657;SDS011;13517;59.320;18.042;2023-12-20T06:08:01;15.45;;;3.88;;
25657;SDS011;13517;59.320;18.042;2023-12-20T06:10:28;51.85;;;4.80;;
25657;SDS011;13517;59.320;18.042;2023-12-20T06:12:54;18.00;;;4.25;;
25657;SDS011;13517;59.320;18.042;2023-12-20T06:15:21;18.15;;;3.83;;
25657;SDS011;13517;59.320;18.042;2023-12-20T06:17:47;17.35;;;3.90;;
25657;SDS011;13517;59.320;18.042;2023-12-20T06:20:12;24.85;;;4.05;;
25657;SDS011;13517;59.320;18.042;2023-12-20T06:22:38;63.05;;;5.03;;
25657;SDS011;13517;59.320;18.042;2023-12-20T06:25:03;45.08;;;4.35;;
25657;SDS011;13517;59.320;18.042;2023-12-20T06:27:29;21.02;;;4.57;;
25657;SDS011;13517;59.320;18.042;2023-12-20T06:29:55;18.25;;;3.72;;
25657;SDS011;13517;59.320;18.042;2023-12-20T06:32:21;19.73;;;4.40;;
25657;SDS011;13517;59.320;18.042;2023-12-20T06:34:48;31.88;;;4.97;;
25657;SDS011;13517;59.320;18.042;2023-12-20T06:37:13;52.00;;;5.35;;
25657;SDS011;13517;59.320;18.042;2023-12-20T06:39:40;31.48;;;5.68;;
25657;SDS011;13517;59.320;18.042;2023-12-20T06:42:05;28.10;;;5.88;;
25657;SDS011;13517;59.320;18.042;2023-12-20T06:44:31;31.58;;;6.80;;
25657;SDS011;13517;59.320;18.042;2023-12-20T06:46:56;26.30;;;7.07;;
25657;SDS011;13517;59.320;18.042;2023-12-20T06:49:22;34.88;;;6.65;;
25657;SDS011;13517;59.320;18.042;2023-12-20T06:51:48;34.55;;;9.15;;
25657;SDS011;13517;59.320;18.042;2023-12-20T06:54:13;33.20;;;8.73;;
25657;SDS011;13517;59.320;18.042;2023-12-20T06:56:39;30.58;;;8.20;;
25657;SDS011;13517;59.320;18.042;2023-12-20T06:59:04;31.58;;;7.63;;
25657;SDS011;13517;59.320;18.042;2023-12-20T07:01:29;26.70;;;6.68;;
25657;SDS011;13517;59.320;18.042;2023-12-20T07:03:55;31.30;;;7.65;;
25657;SDS011;13517;59.320;18.042;2023-12-20T07:06:20;18.92;;;7.20;;
25657;SDS011;13517;59.320;18.042;2023-12-20T07:08:46;20.33;;;5.80;;
25657;SDS011;13517;59.320;18.042;2023-12-20T07:11:11;25.27;;;6.05;;
25657;SDS011;13517;59.320;18.042;2023-12-20T07:13:37;22.13;;;5.60;;
25657;SDS011;13517;59.320;18.042;2023-12-20T07:16:02;23.00;;;6.22;;
25657;SDS011;13517;59.320;18.042;2023-12-20T07:18:28;30.23;;;6.38;;
25657;SDS011;13517;59.320;18.042;2023-12-20T07:20:54;34.13;;;8.52;;
25657;SDS011;13517;59.320;18.042;2023-12-20T07:23:20;29.77;;;6.93;;
25657;SDS011;13517;59.320;18.042;2023-12-20T07:25:46;28.48;;;7.13;;
25657;SDS011;13517;59.320;18.042;2023-12-20T07:28:12;30.35;;;8.30;;
25657;SDS011;13517;59.320;18.042;2023-12-20T07:30:37;35.08;;;8.98;;
25657;SDS011;13517;59.320;18.042;2023-12-20T07:33:03;31.42;;;8.85;;
25657;SDS011;13517;59.320;18.042;2023-12-20T07:35:28;34.15;;;9.15;;
25657;SDS011;13517;59.320;18.042;2023-12-20T07:37:54;35.60;;;9.63;;
25657;SDS011;13517;59.320;18.042;2023-12-20T07:40:19;33.75;;;8.40;;
25657;SDS011;13517;59.320;18.042;2023-12-20T07:42:45;39.42;;;8.88;;
25657;SDS011;13517;59.320;18.042;2023-12-20T07:45:10;41.50;;;9.25;;
25657;SDS011;13517;59.320;18.042;2023-12-20T07:47:36;35.15;;;9.35;;
25657;SDS011;13517;59.320;18.042;2023-12-20T07:50:02;26.52;;;8.25;;
25657;SDS011;13517;59.320;18.042;2023-12-20T07:52:28;22.17;;;7.60;;
25657;SDS011;13517;59.320;18.042;2023-12-20T07:54:54;32.53;;;7.80;;
25657;SDS011;13517;59.320;18.042;2023-12-20T07:57:20;29.77;;;7.82;;
25657;SDS011;13517;59.320;18.042;2023-12-20T07:59:46;25.92;;;6.90;;
25657;SDS011;13517;59.320;18.042;2023-12-20T08:02:11;28.90;;;7.93;;
25657;SDS011;13517;59.320;18.042;2023-12-20T08:04:36;31.75;;;7.07;;
25657;SDS011;13517;59.320;18.042;2023-12-20T08:07:02;24.27;;;8.13;;
25657;SDS011;13517;59.320;18.042;2023-12-20T08:09:28;21.02;;;6.32;;
25657;SDS011;13517;59.320;18.042;2023-12-20T08:11:54;21.75;;;6.05;;
25657;SDS011;13517;59.320;18.042;2023-12-20T08:14:19;22.02;;;6.07;;
25657;SDS011;13517;59.320;18.042;2023-12-20T08:16:44;20.02;;;5.30;;
25657;SDS011;13517;59.320;18.042;2023-12-20T08:19:10;18.02;;;5.97;;
25657;SDS011;13517;59.320;18.042;2023-12-20T08:21:35;22.35;;;5.43;;
25657;SDS011;13517;59.320;18.042;2023-12-20T08:24:01;14.43;;;6.65;;
25657;SDS011;13517;59.320;18.042;2023-12-20T08:26:26;25.35;;;5.47;;
25657;SDS011;13517;59.320;18.042;2023-12-20T08:28:52;22.40;;;5.95;;
25657;SDS011;13517;59.320;18.042;2023-12-20T08:31:17;19.98;;;5.43;;
25657;SDS011;13517;59.320;18.042;2023-12-20T08:33:47;27.45;;;6.00;;
25657;SDS011;13517;59.320;18.042;2023-12-20T08:36:13;16.88;;;4.93;;
25657;SDS011;13517;59.320;18.042;2023-12-20T08:38:39;24.55;;;5.78;;
25657;SDS011;13517;59.320;18.042;2023-12-20T08:41:04;18.65;;;5.63;;
25657;SDS011;13517;59.320;18.042;2023-12-20T08:43:31;28.92;;;6.13;;
25657;SDS011;13517;59.320;18.042;2023-12-20T08:45:57;28.15;;;5.82;;
25657;SDS011;13517;59.320;18.042;2023-12-20T08:48:22;23.73;;;4.95;;
25657;SDS011;13517;59.320;18.042;2023-12-20T08:50:48;24.02;;;6.07;;
25657;SDS011;13517;59.320;18.042;2023-12-20T08:53:17;19.13;;;5.53;;
25657;SDS011;13517;59.320;18.042;2023-12-20T08:55:43;21.42;;;5.00;;
25657;SDS011;13517;59.320;18.042;2023-12-20T08:58:09;21.27;;;6.55;;
25657;SDS011;13517;59.320;18.042;2023-12-20T09:00:34;19.48;;;6.35;;
25657;SDS011;13517;59.320;18.042;2023-12-20T09:03:01;19.52;;;6.15;;
25657;SDS011;13517;59.320;18.042;2023-12-20T09:05:27;23.75;;;5.90;;
25657;SDS011;13517;59.320;18.042;2023-12-20T09:07:52;17.00;;;5.68;;
25657;SDS011;13517;59.320;18.042;2023-12-20T09:10:18;25.60;;;5.85;;
25657;SDS011;13517;59.320;18.042;2023-12-20T09:12:47;19.20;;;5.47;;
25657;SDS011;13517;59.320;18.042;2023-12-20T09:15:15;22.73;;;5.05;;
25657;SDS011;13517;59.320;18.042;2023-12-20T09:17:40;13.35;;;5.38;;
25657;SDS011;13517;59.320;18.042;2023-12-20T09:23:28;21.70;;;4.93;;
25657;SDS011;13517;59.320;18.042;2023-12-20T09:25:54;19.20;;;5.68;;
25657;SDS011;13517;59.320;18.042;2023-12-20T09:28:19;25.73;;;5.35;;
25657;SDS011;13517;59.320;18.042;2023-12-20T09:30:44;24.10;;;5.13;;
25657;SDS011;13517;59.320;18.042;2023-12-20T09:33:11;24.63;;;5.35;;
25657;SDS011;13517;59.320;18.042;2023-12-20T09:35:36;29.30;;;6.65;;
25657;SDS011;13517;59.320;18.042;2023-12-20T09:38:02;22.35;;;5.70;;
25657;SDS011;13517;59.320;18.042;2023-12-20T09:40:27;14.50;;;4.75;;
25657;SDS011;13517;59.320;18.042;2023-12-20T09:42:57;20.75;;;4.80;;
25657;SDS011;13517;59.320;18.042;2023-12-20T09:45:27;16.23;;;4.97;;
25657;SDS011;13517;59.320;18.042;2023-12-20T09:47:53;12.57;;;4.20;;
25657;SDS011;13517;59.320;18.042;2023-12-20T09:50:20;22.58;;;4.53;;
25657;SDS011;13517;59.320;18.042;2023-12-20T09:52:49;25.67;;;6.10;;
25657;SDS011;13517;59.320;18.042;2023-12-20T09:55:19;20.00;;;4.50;;
25657;SDS011;13517;59.320;18.042;2023-12-20T09:57:46;24.17;;;5.45;;
25657;SDS011;13517;59.320;18.042;2023-12-20T10:00:13;26.13;;;5.57;;
25657;SDS011;13517;59.320;18.042;2023-12-20T10:02:41;20.15;;;5.13;;
25657;SDS011;13517;59.320;18.042;2023-12-20T10:05:15;29.23;;;5.22;;
25657;SDS011;13517;59.320;18.042;2023-12-20T10:07:44;15.68;;;4.47;;
25657;SDS011;13517;59.320;18.042;2023-12-20T10:10:11;21.92;;;5.28;;
25657;SDS011;13517;59.320;18.042;2023-12-20T10:12:38;25.77;;;6.35;;
25657;SDS011;13517;59.320;18.042;2023-12-20T10:15:04;26.52;;;6.07;;
25657;SDS011;13517;59.320;18.042;2023-12-20T10:17:30;27.08;;;5.65;;
25657;SDS011;13517;59.320;18.042;2023-12-20T10:19:57;19.35;;;4.90;;
25657;SDS011;13517;59.320;18.042;2023-12-20T10:22:23;23.27;;;6.50;;
25657;SDS011;13517;59.320;18.042;2023-12-20T10:24:48;29.77;;;6.90;;
25657;SDS011;13517;59.320;18.042;2023-12-20T10:27:14;19.38;;;5.13;;
25657;SDS011;13517;59.320;18.042;2023-12-20T10:29:39;22.40;;;5.75;;
25657;SDS011;13517;59.320;18.042;2023-12-20T10:34:50;30.45;;;5.10;;
25657;SDS011;13517;59.320;18.042;2023-12-20T10:37:16;12.05;;;4.07;;
25657;SDS011;13517;59.320;18.042;2023-12-20T10:39:42;19.40;;;4.43;;
25657;SDS011;13517;59.320;18.042;2023-12-20T10:42:09;18.02;;;5.10;;
25657;SDS011;13517;59.320;18.042;2023-12-20T10:44:37;14.75;;;4.38;;
25657;SDS011;13517;59.320;18.042;2023-12-20T10:47:03;12.90;;;3.97;;
25657;SDS011;13517;59.320;18.042;2023-12-20T10:49:29;19.40;;;4.55;;
25657;SDS011;13517;59.320;18.042;2023-12-20T10:51:56;30.13;;;4.88;;
25657;SDS011;13517;59.320;18.042;2023-12-20T10:54:25;20.95;;;4.60;;
25657;SDS011;13517;59.320;18.042;2023-12-20T10:56:51;15.80;;;3.92;;
25657;SDS011;13517;59.320;18.042;2023-12-20T10:59:19;16.00;;;4.30;;
25657;SDS011;13517;59.320;18.042;2023-12-20T11:01:47;24.85;;;4.28;;
25657;SDS011;13517;59.320;18.042;2023-12-20T11:04:15;27.95;;;5.00;;
25657;SDS011;13517;59.320;18.042;2023-12-20T11:06:49;29.50;;;4.68;;
25657;SDS011;13517;59.320;18.042;2023-12-20T11:09:24;18.30;;;4.10;;
25657;SDS011;13517;59.320;18.042;2023-12-20T11:14:37;24.80;;;3.90;;
25657;SDS011;13517;59.320;18.042;2023-12-20T11:17:11;23.35;;;4.45;;
25657;SDS011;13517;59.320;18.042;2023-12-20T11:22:22;21.45;;;4.32;;
25657;SDS011;13517;59.320;18.042;2023-12-20T11:24:50;19.17;;;3.97;;
25657;SDS011;13517;59.320;18.042;2023-12-20T11:27:21;14.93;;;3.58;;
25657;SDS011;13517;59.320;18.042;2023-12-20T11:29:57;17.00;;;4.05;;
25657;SDS011;13517;59.320;18.042;2023-12-20T11:37:28;14.52;;;3.75;;
25657;SDS011;13517;59.320;18.042;2023-12-20T11:39:59;16.52;;;2.90;;
25657;SDS011;13517;59.320;18.042;2023-12-20T11:42:33;16.10;;;3.58;;
25657;SDS011;13517;59.320;18.042;2023-12-20T11:45:02;15.50;;;3.38;;
25657;SDS011;13517;59.320;18.042;2023-12-20T11:47:28;14.60;;;3.50;;
25657;SDS011;13517;59.320;18.042;2023-12-20T11:49:56;9.93;;;3.38;;
25657;SDS011;13517;59.320;18.042;2023-12-20T11:52:21;13.88;;;3.05;;
25657;SDS011;13517;59.320;18.042;2023-12-20T11:54:47;13.00;;;3.53;;
25657;SDS011;13517;59.320;18.042;2023-12-20T11:57:13;13.73;;;3.15;;
25657;SDS011;13517;59.320;18.042;2023-12-20T11:59:38;15.65;;;4.20;;
25657;SDS011;13517;59.320;18.042;2023-12-20T12:02:04;13.32;;;3.15;;
25657;SDS011;13517;59.320;18.042;2023-12-20T12:04:30;15.07;;;3.30;;
25657;SDS011;13517;59.320;18.042;2023-12-20T12:06:56;12.00;;;3.55;;
25657;SDS011;13517;59.320;18.042;2023-12-20T12:09:21;11.98;;;2.90;;
25657;SDS011;13517;59.320;18.042;2023-12-20T12:11:46;10.02;;;3.13;;
25657;SDS011;13517;59.320;18.042;2023-12-20T12:14:12;12.88;;;3.08;;
25657;SDS011;13517;59.320;18.042;2023-12-20T12:16:37;10.73;;;2.90;;
25657;SDS011;13517;59.320;18.042;2023-12-20T12:19:03;8.23;;;2.60;;
25657;SDS011;13517;59.320;18.042;2023-12-20T12:21:29;8.50;;;2.80;;
25657;SDS011;13517;59.320;18.042;2023-12-20T12:24:05;8.10;;;2.70;;
25657;SDS011;13517;59.320;18.042;2023-12-20T12:26:34;12.27;;;2.45;;
25657;SDS011;13517;59.320;18.042;2023-12-20T12:28:59;8.02;;;2.13;;
25657;SDS011;13517;59.320;18.042;2023-12-20T12:31:25;6.90;;;2.20;;
25657;SDS011;13517;59.320;18.042;2023-12-20T12:33:51;9.02;;;2.10;;
25657;SDS011;13517;59.320;18.042;2023-12-20T12:36:17;4.97;;;2.53;;
25657;SDS011;13517;59.320;18.042;2023-12-20T12:38:43;6.05;;;2.05;;
25657;SDS011;13517;59.320;18.042;2023-12-20T12:41:09;6.93;;;2.13;;
25657;SDS011;13517;59.320;18.042;2023-12-20T12:43:35;6.97;;;2.03;;
25657;SDS011;13517;59.320;18.042;2023-12-20T12:46:01;3.92;;;2.10;;
25657;SDS011;13517;59.320;18.042;2023-12-20T12:48:26;5.82;;;1.95;;
25657;SDS011;13517;59.320;18.042;2023-12-20T12:50:53;5.13;;;1.70;;
25657;SDS011;13517;59.320;18.042;2023-12-20T12:53:19;4.18;;;1.85;;
25657;SDS011;13517;59.320;18.042;2023-12-20T12:55:45;9.90;;;1.90;;
25657;SDS011;13517;59.320;18.042;2023-12-20T12:58:11;11.00;;;2.22;;
25657;SDS011;13517;59.320;18.042;2023-12-20T13:00:36;6.05;;;2.10;;
25657;SDS011;13517;59.320;18.042;2023-12-20T13:03:02;7.78;;;1.75;;
25657;SDS011;13517;59.320;18.042;2023-12-20T13:05:27;8.02;;;2.25;;
25657;SDS011;13517;59.320;18.042;2023-12-20T13:07:54;7.07;;;2.30;;
25657;SDS011;13517;59.320;18.042;2023-12-20T13:10:20;5.95;;;2.30;;
25657;SDS011;13517;59.320;18.042;2023-12-20T13:12:45;11.27;;;2.90;;
25657;SDS011;13517;59.320;18.042;2023-12-20T13:15:11;6.00;;;2.40;;
25657;SDS011;13517;59.320;18.042;2023-12-20T13:17:36;7.15;;;2.28;;
25657;SDS011;13517;59.320;18.042;2023-12-20T13:20:02;5.85;;;2.30;;
25657;SDS011;13517;59.320;18.042;2023-12-20T13:22:28;11.55;;;6.13;;
25657;SDS011;13517;59.320;18.042;2023-12-20T13:24:54;7.18;;;3.70;;
25657;SDS011;13517;59.320;18.042;2023-12-20T13:27:19;6.63;;;2.50;;
25657;SDS011;13517;59.320;18.042;2023-12-20T13:29:45;6.03;;;3.35;;
25657;SDS011;13517;59.320;18.042;2023-12-20T13:32:10;8.10;;;3.10;;
25657;SDS011;13517;59.320;18.042;2023-12-20T13:34:36;4.57;;;2.80;;
25657;SDS011;13517;59.320;18.042;2023-12-20T13:37:01;5.68;;;2.60;;
25657;SDS011;13517;59.320;18.042;2023-12-20T13:39:26;6.38;;;2.30;;
25657;SDS011;13517;59.320;18.042;2023-12-20T13:41:52;9.25;;;2.70;;
25657;SDS011;13517;59.320;18.042;2023-12-20T13:44:18;5.05;;;2.70;;
25657;SDS011;13517;59.320;18.042;2023-12-20T13:46:43;5.18;;;2.40;;
25657;SDS011;13517;59.320;18.042;2023-12-20T13:49:10;7.93;;;2.55;;
25657;SDS011;13517;59.320;18.042;2023-12-20T13:51:37;5.20;;;2.20;;
25657;SDS011;13517;59.320;18.042;2023-12-20T13:54:03;9.60;;;2.33;;
25657;SDS011;13517;59.320;18.042;2023-12-20T13:56:29;4.50;;;2.85;;
25657;SDS011;13517;59.320;18.042;2023-12-20T13:58:54;7.47;;;2.55;;
25657;SDS011;13517;59.320;18.042;2023-12-20T14:01:20;7.32;;;2.50;;
25657;SDS011;13517;59.320;18.042;2023-12-20T14:03:45;6.05;;;2.40;;
25657;SDS011;13517;59.320;18.042;2023-12-20T14:06:10;12.50;;;2.78;;
25657;SDS011;13517;59.320;18.042;2023-12-20T14:08:36;8.27;;;2.80;;
25657;SDS011;13517;59.320;18.042;2023-12-20T14:11:02;11.57;;;3.20;;
25657;SDS011;13517;59.320;18.042;2023-12-20T14:13:27;6.20;;;2.95;;
25657;SDS011;13517;59.320;18.042;2023-12-20T14:15:53;10.73;;;2.75;;
25657;SDS011;13517;59.320;18.042;2023-12-20T14:18:19;14.52;;;3.55;;
25657;SDS011;13517;59.320;18.042;2023-12-20T14:20:45;16.40;;;3.60;;
25657;SDS011;13517;59.320;18.042;2023-12-20T14:23:12;7.75;;;3.25;;
25657;SDS011;13517;59.320;18.042;2023-12-20T14:25:39;12.05;;;3.28;;
25657;SDS011;13517;59.320;18.042;2023-12-20T14:28:06;9.88;;;3.30;;
25657;SDS011;13517;59.320;18.042;2023-12-20T14:30:31;13.07;;;3.40;;
25657;SDS011;13517;59.320;18.042;2023-12-20T14:32:57;13.65;;;3.42;;